LHSM/SOB METAR and TAF weather

Enter ICAO airport designator
Station Type Date Time Source
LHSM METAR 2019/06/18 04:45 UTC NOAA

LHSM 180445Z AUTO 00000KT 8000 FEW037 SCT107 20/17 Q1017


Station Type Date Time Source
LHSM Decoded METAR 2019/06/18 04:45 UTC NOAA

Station name not available
Jun 18, 2019 - 12:45 AM EDT / 2019.06.18 0445 UTC
Wind: Calm:0
Visibility: 4 mile(s):0
Sky conditions: partly cloudy
Temperature: 68 F (20 C)
Dew Point: 62 F (17 C)
Relative Humidity: 82%
Pressure (altimeter): 30.03 in. Hg (1017 hPa)
ob: LHSM 180445Z AUTO 00000KT 8000 FEW037 SCT107 20/17 Q1017
cycle: 5

Station Type Date Time Source
LHSM TAF UTC NOAA

Error!

Example: see airport list